createdAt,value
2019-05-15T00:04:12.927Z,9.36
2019-05-15T00:09:18.871Z,9.36
2019-05-15T00:14:21.547Z,9.37
2019-05-15T00:19:24.987Z,9.36
2019-05-15T00:24:28.937Z,9.28
2019-05-15T00:29:32.511Z,9.24
2019-05-15T00:34:37.861Z,9.26
2019-05-15T00:39:41.102Z,9.11
2019-05-15T00:44:44.544Z,9.07
2019-05-15T00:49:48.808Z,8.81
2019-05-15T00:54:52.440Z,8.73
2019-05-15T00:59:55.825Z,8.61
2019-05-15T01:04:59.254Z,8.49
2019-05-15T01:10:03.037Z,8.41
2019-05-15T01:15:09.516Z,8.33
2019-05-15T01:20:13.336Z,7.99
2019-05-15T01:25:18.645Z,8.09
2019-05-15T01:30:22.134Z,8.14
2019-05-15T01:35:25.567Z,8.12
2019-05-15T01:40:29.061Z,8.10
2019-05-15T01:45:32.477Z,8.04
2019-05-15T01:50:38.397Z,7.85
2019-05-15T01:55:41.063Z,7.83
2019-05-15T02:00:44.480Z,7.68
2019-05-15T02:05:48.580Z,7.63
2019-05-15T02:10:52.012Z,7.66
2019-05-15T02:15:55.412Z,7.60
2019-05-15T02:20:59.788Z,7.59
2019-05-15T02:26:03.319Z,7.16
2019-05-15T02:31:09.969Z,7.40
2019-05-15T02:36:11.915Z,7.24
2019-05-15T02:41:15.322Z,7.33
2019-05-15T02:46:19.615Z,7.35
2019-05-15T02:51:23.241Z,7.34
2019-05-15T02:56:29.356Z,7.14
2019-05-15T03:01:31.902Z,7.00
2019-05-15T03:06:38.634Z,6.99
2019-05-15T03:11:41.271Z,6.89
2019-05-15T03:16:44.730Z,7.04
2019-05-15T03:21:49.630Z,6.99
2019-05-15T03:26:53.325Z,7.05
2019-05-15T03:32:13.529Z,6.94
2019-05-15T03:37:04.188Z,6.69
2019-05-15T03:42:09.583Z,6.70
2019-05-15T03:47:13.291Z,6.65
2019-05-15T03:52:19.047Z,6.71
2019-05-15T03:57:23.183Z,6.79
2019-05-15T04:02:28.778Z,6.86
2019-05-15T04:07:32.494Z,6.76
2019-05-15T04:12:35.898Z,6.57
2019-05-15T04:17:40.348Z,6.68
2019-05-15T04:22:44.013Z,6.73
2019-05-15T04:27:49.604Z,6.58
2019-05-15T04:32:53.027Z,6.42
2019-05-15T04:37:59.420Z,6.56
2019-05-15T04:43:01.702Z,6.46
2019-05-15T04:48:05.363Z,6.32
2019-05-15T04:53:10.538Z,6.61
2019-05-15T04:58:14.060Z,6.49
2019-05-15T05:03:19.852Z,6.43
2019-05-15T05:08:22.754Z,6.58
2019-05-15T05:13:28.642Z,6.56
2019-05-15T05:18:31.394Z,6.69
2019-05-15T05:23:34.811Z,6.91
2019-05-15T05:28:38.225Z,6.99
2019-05-15T05:33:41.672Z,7.14
2019-05-15T05:38:45.090Z,7.36
2019-05-15T05:43:48.802Z,7.41
2019-05-15T05:48:52.331Z,7.40
2019-05-15T05:53:55.837Z,7.49
2019-05-15T05:58:59.243Z,7.51
2019-05-15T06:04:02.655Z,7.61
2019-05-15T06:09:09.039Z,7.72
2019-05-15T06:14:12.023Z,7.79
2019-05-15T06:19:15.450Z,7.92
2019-05-15T06:24:18.871Z,7.99
2019-05-15T06:29:22.286Z,8.10
2019-05-15T06:34:25.718Z,8.26
2019-05-15T06:39:29.216Z,8.38
2019-05-15T06:44:32.773Z,8.58
2019-05-15T06:49:37.823Z,8.83
2019-05-15T06:54:41.410Z,9.14
2019-05-15T06:59:44.822Z,9.41
2019-05-15T07:04:48.888Z,9.80
2019-05-15T07:09:52.722Z,10.24
2019-05-15T07:14:58.217Z,10.54
2019-05-15T07:20:01.371Z,10.90
2019-05-15T07:25:08.886Z,11.24
2019-05-15T07:30:13.152Z,11.50
2019-05-15T07:35:19.157Z,11.92
2019-05-15T07:40:23.348Z,12.02
2019-05-15T07:45:28.279Z,12.16
2019-05-15T07:50:31.860Z,12.55
2019-05-15T07:55:35.299Z,12.91
2019-05-15T08:00:39.635Z,13.02
2019-05-15T08:05:58.050Z,13.07
2019-05-15T08:10:49.225Z,13.60
2019-05-15T08:15:52.681Z,13.79
2019-05-15T08:20:58.632Z,13.95
2019-05-15T08:26:01.261Z,14.26
2019-05-15T08:31:06.707Z,14.23
2019-05-15T08:36:09.923Z,14.43
2019-05-15T08:41:15.566Z,15.01
2019-05-15T08:46:18.812Z,15.30
2019-05-15T08:51:22.334Z,15.43
2019-05-15T08:56:28.668Z,15.65
2019-05-15T09:01:30.910Z,15.73
2019-05-15T09:06:34.328Z,16.22
2019-05-15T09:11:39.180Z,16.52
2019-05-15T09:16:42.896Z,16.55
2019-05-15T09:21:48.811Z,16.68
2019-05-15T09:26:51.602Z,16.86
2019-05-15T09:31:55.029Z,16.92
2019-05-15T09:36:59.938Z,17.33
2019-05-15T09:42:03.603Z,17.14
2019-05-15T09:47:09.151Z,17.62
2019-05-15T09:52:12.147Z,17.84
2019-05-15T09:57:15.579Z,17.71
2019-05-15T10:02:19.241Z,17.85
2019-05-15T10:07:22.709Z,18.47
2019-05-15T10:12:31.347Z,18.32
2019-05-15T10:17:31.299Z,18.85
2019-05-15T10:22:34.724Z,19.12
2019-05-15T10:27:39.824Z,20.31
2019-05-15T10:32:43.489Z,20.31
2019-05-15T10:37:48.825Z,20.36
2019-05-15T10:42:52.103Z,20.36
2019-05-15T10:47:58.404Z,20.94
2019-05-15T10:53:00.686Z,21.11
2019-05-15T10:58:04.230Z,20.77
2019-05-15T11:03:08.902Z,21.34
2019-05-15T11:08:12.459Z,21.46
2019-05-15T11:13:18.510Z,21.62
2019-05-15T11:18:21.083Z,21.83
2019-05-15T11:23:24.523Z,21.49
2019-05-15T11:28:31.726Z,22.14
2019-05-15T11:33:33.089Z,22.13
2019-05-15T11:38:38.149Z,22.56
2019-05-15T11:43:41.753Z,22.85
2019-05-15T11:48:45.169Z,22.85
2019-05-15T11:53:49.191Z,23.45
2019-05-15T11:58:52.791Z,22.67
2019-05-15T12:03:58.575Z,22.01
2019-05-15T12:09:01.412Z,21.59
2019-05-15T12:14:04.916Z,21.90
2019-05-15T12:19:09.516Z,21.04
2019-05-15T12:24:13.768Z,20.68
2019-05-15T12:29:17.291Z,21.23
2019-05-15T12:34:20.720Z,22.41
2019-05-15T12:39:29.458Z,23.38
2019-05-15T12:59:45.069Z,21.96
2019-05-15T13:04:48.563Z,23.22
2019-05-15T13:09:52.076Z,23.77
2019-05-15T13:14:55.491Z,24.23
2019-05-15T13:19:58.907Z,23.24
2019-05-15T13:25:02.529Z,22.36
2019-05-15T13:30:11.996Z,21.53
2019-05-15T13:35:15.625Z,20.94
2019-05-15T13:40:33.824Z,21.53
2019-05-15T13:45:24.734Z,21.53
2019-05-15T13:50:28.620Z,21.46
2019-05-15T13:55:36.803Z,21.99
2019-05-15T14:00:39.133Z,21.43
2019-05-15T14:05:45.090Z,21.85
2019-05-15T14:10:48.755Z,22.87
2019-05-15T14:15:52.389Z,22.67
2019-05-15T14:20:58.206Z,22.06
2019-05-15T14:26:15.079Z,21.30
2019-05-15T14:31:09.503Z,21.16
2019-05-15T14:36:11.273Z,20.85
2019-05-15T14:41:14.703Z,21.50
2019-05-15T14:46:18.650Z,22.37
2019-05-15T14:51:22.135Z,22.47
2019-05-15T14:56:25.584Z,22.85
2019-05-15T15:01:29.041Z,22.97
2019-05-15T15:06:32.474Z,22.84
2019-05-15T15:11:38.368Z,21.32
2019-05-15T15:16:41.121Z,20.53
2019-05-15T15:21:44.539Z,19.94
2019-05-15T15:26:49.323Z,20.17
2019-05-15T15:31:52.877Z,21.42
2019-05-15T15:36:57.937Z,21.52
2019-05-15T15:42:01.503Z,22.08
2019-05-15T15:47:05.201Z,21.44
2019-05-15T15:52:08.942Z,20.31
2019-05-15T15:57:12.396Z,19.70
2019-05-15T16:02:15.785Z,19.52
2019-05-15T16:07:19.214Z,19.16
2019-05-15T16:12:22.638Z,19.13
2019-05-15T16:17:28.477Z,18.85
2019-05-15T16:22:31.213Z,19.69
2019-05-15T16:27:34.628Z,19.59
2019-05-15T16:32:41.405Z,19.22
2019-05-15T16:37:43.353Z,18.76
2019-05-15T16:42:48.861Z,18.80
2019-05-15T16:47:52.212Z,19.18
2019-05-15T16:52:55.644Z,19.01
2019-05-15T16:57:59.179Z,19.13
2019-05-15T17:03:10.093Z,18.94
2019-05-15T17:08:09.154Z,18.42
2019-05-15T17:13:12.725Z,18.13
2019-05-15T17:18:18.114Z,18.00
2019-05-15T17:23:21.277Z,17.80
2019-05-15T17:28:24.707Z,17.44
2019-05-15T17:33:28.875Z,17.22
2019-05-15T17:38:33.436Z,17.08
2019-05-15T17:43:37.942Z,16.96
2019-05-15T17:48:41.431Z,16.99
2019-05-15T17:53:44.867Z,16.92
2019-05-15T17:58:48.836Z,16.92
2019-05-15T18:03:52.379Z,16.80
2019-05-15T18:08:55.980Z,16.67
2019-05-15T18:14:00.186Z,16.57
2019-05-15T18:19:03.608Z,16.32
2019-05-15T18:24:09.313Z,16.20
2019-05-15T18:29:12.933Z,16.09
2019-05-15T18:34:18.616Z,15.85
2019-05-15T18:39:21.776Z,15.73
2019-05-15T18:44:25.197Z,15.50
2019-05-15T18:49:28.646Z,15.32
2019-05-15T18:54:32.075Z,15.13
2019-05-15T18:59:35.496Z,14.74
2019-05-15T19:04:38.919Z,14.56
2019-05-15T19:09:42.376Z,14.33
2019-05-15T19:14:46.006Z,14.21
2019-05-15T19:19:49.418Z,14.06
2019-05-15T19:24:52.838Z,13.95
2019-05-15T19:29:56.285Z,13.64
2019-05-15T19:34:59.707Z,13.56
2019-05-15T19:40:03.914Z,13.46
2019-05-15T19:45:09.251Z,13.44
2019-05-15T19:50:13.927Z,13.29
2019-05-15T19:55:19.524Z,13.16
2019-05-15T20:00:23.713Z,13.25
2019-05-15T20:05:29.004Z,13.16
2019-05-15T20:10:32.215Z,13.02
2019-05-15T20:15:37.814Z,12.99
2019-05-15T20:20:40.780Z,12.88
2019-05-15T20:25:44.288Z,12.81
2019-05-15T20:30:48.185Z,12.62
2019-05-15T20:35:51.784Z,12.82
2019-05-15T20:40:55.219Z,12.87
2019-05-15T20:45:58.642Z,12.67
2019-05-15T20:51:02.079Z,12.65
2019-05-15T20:56:05.503Z,12.56
2019-05-15T21:01:09.301Z,12.54
2019-05-15T21:06:12.751Z,12.65
2019-05-15T21:11:18.049Z,12.77
2019-05-15T21:16:22.990Z,12.85
2019-05-15T21:21:28.255Z,12.97
2019-05-15T21:26:31.529Z,13.05
2019-05-15T21:31:35.000Z,13.08
2019-05-15T21:36:39.456Z,13.05
2019-05-15T21:41:43.026Z,13.13
2019-05-15T21:46:48.124Z,13.16
2019-05-15T21:51:51.647Z,13.23
2019-05-15T21:57:06.794Z,13.26
2019-05-15T22:02:00.564Z,13.23
2019-05-15T22:07:04.061Z,13.20
2019-05-15T22:12:07.684Z,13.17
2019-05-15T22:17:11.107Z,13.20
2019-05-15T22:22:14.591Z,13.20
2019-05-15T22:27:21.044Z,13.14
2019-05-15T22:32:23.190Z,13.11
2019-05-15T22:37:26.598Z,13.15
2019-05-15T22:42:31.814Z,13.10
2019-05-15T22:47:35.416Z,13.06
2019-05-15T22:52:39.164Z,12.98
2019-05-15T22:57:42.550Z,13.02
2019-05-15T23:02:48.899Z,13.00
2019-05-15T23:07:51.843Z,12.98
2019-05-15T23:12:55.267Z,12.90
2019-05-15T23:17:58.698Z,12.79
2019-05-15T23:23:02.137Z,12.79
2019-05-15T23:28:05.657Z,12.69
2019-05-15T23:33:09.075Z,12.66
2019-05-15T23:38:12.497Z,12.66
2019-05-15T23:43:15.944Z,12.68
2019-05-15T23:48:19.374Z,12.69
2019-05-15T23:53:22.823Z,12.73
2019-05-15T23:58:28.886Z,12.71
